Time;durP1;ratioP1;P1;durP2;ratioP2;P2;SDS_P1;SDS_P2;PMS_P1;PMS_P2;Temp;Humidity;BMP_temperature;BMP_pressure;BME280_temperature;BME280_humidity;BME280_pressure;Samples;Min_cycle;Max_cycle;Signal;HPM_P1;HPM_P2
2022/12/02 00:01:21;;;;;;;2.92;2.63;;;2.90;57.20;;;;;;5033539;28;20029;-55
2022/12/02 00:03:47;;;;;;;2.70;2.50;;;2.80;57.30;;;;;;5033595;28;20068;-55
2022/12/02 00:06:40;;;;;;;3.20;2.72;;;2.80;57.50;;;;;;5039596;28;20040;-55
2022/12/02 00:09:16;;;;;;;3.65;2.42;;;2.80;57.20;;;;;;5026289;28;20033;-55
2022/12/02 00:11:44;;;;;;;2.30;2.10;;;2.80;57.30;;;;;;5032869;28;20052;-55
2022/12/02 00:14:26;;;;;;;3.88;2.72;;;2.80;57.30;;;;;;5037818;28;20033;-55
2022/12/02 00:16:51;;;;;;;2.70;2.50;;;2.80;57.40;;;;;;5037529;28;20037;-55
2022/12/02 00:19:18;;;;;;;3.58;2.53;;;2.70;57.40;;;;;;5035529;28;20051;-54
2022/12/02 00:21:43;;;;;;;2.50;2.30;;;2.70;57.40;;;;;;5038836;28;20032;-53
2022/12/02 00:24:09;;;;;;;2.55;2.25;;;2.70;57.60;;;;;;5037823;28;20116;-54
2022/12/02 00:26:35;;;;;;;3.13;2.40;;;2.80;57.70;;;;;;5036499;28;20088;-54
2022/12/02 00:29:00;;;;;;;3.45;2.40;;;2.80;57.60;;;;;;5037660;28;20354;-54
2022/12/02 00:31:26;;;;;;;3.05;2.60;;;2.80;57.50;;;;;;5037493;28;20385;-54
2022/12/02 00:33:52;;;;;;;4.75;2.60;;;2.80;57.40;;;;;;5038061;28;20041;-55
2022/12/02 00:36:17;;;;;;;2.95;2.60;;;2.80;57.50;;;;;;5035869;28;20127;-55
2022/12/02 00:38:43;;;;;;;2.60;2.15;;;2.80;57.30;;;;;;5037663;28;20084;-55
2022/12/02 00:41:08;;;;;;;2.58;2.38;;;2.70;57.20;;;;;;5038393;28;20449;-54
2022/12/02 00:46:36;;;;;;;2.40;2.20;;;2.70;57.60;;;;;;5036817;28;20049;-53
2022/12/02 00:49:12;;;;;;;2.88;2.33;;;2.70;57.80;;;;;;5036370;28;20030;-55
2022/12/02 00:51:40;;;;;;;2.47;2.28;;;2.70;57.70;;;;;;5037843;28;20025;-57
2022/12/02 00:54:06;;;;;;;2.70;2.45;;;2.80;58.00;;;;;;5037230;28;20037;-55
2022/12/02 00:56:32;;;;;;;3.17;2.40;;;2.80;57.80;;;;;;5037313;28;20383;-55
2022/12/02 00:58:58;;;;;;;2.80;2.50;;;2.80;57.60;;;;;;5035535;28;20044;-53
2022/12/02 01:01:24;;;;;;;2.42;2.22;;;2.80;57.80;;;;;;5036783;28;20029;-54
2022/12/02 01:03:50;;;;;;;2.88;2.38;;;2.80;57.60;;;;;;5036191;28;20064;-54
2022/12/02 01:06:16;;;;;;;2.63;2.33;;;2.80;57.80;;;;;;5034573;28;20034;-56
2022/12/02 01:08:42;;;;;;;2.50;2.30;;;2.80;57.90;;;;;;5032470;28;20433;-55
2022/12/02 01:11:09;;;;;;;2.58;2.38;;;2.90;57.80;;;;;;5036293;28;20044;-55
2022/12/02 01:13:34;;;;;;;3.33;2.80;;;2.90;57.80;;;;;;5035405;28;20736;-54
2022/12/02 01:16:00;;;;;;;4.00;2.65;;;2.90;57.80;;;;;;5037166;28;20132;-56
2022/12/02 01:18:26;;;;;;;2.75;2.53;;;2.90;57.60;;;;;;5039341;28;20040;-55
2022/12/02 01:20:52;;;;;;;3.00;2.25;;;2.80;57.80;;;;;;5036514;28;20033;-55
2022/12/02 01:23:18;;;;;;;2.55;2.35;;;2.80;57.90;;;;;;5030690;28;20041;-56
2022/12/02 01:25:44;;;;;;;2.80;2.50;;;2.80;57.70;;;;;;5035258;28;20049;-55
2022/12/02 01:28:10;;;;;;;4.03;2.53;;;2.80;58.00;;;;;;5033755;28;20520;-54
2022/12/02 01:30:36;;;;;;;3.33;2.47;;;2.80;57.90;;;;;;5037643;28;20017;-56
2022/12/02 01:33:03;;;;;;;2.53;2.33;;;2.70;58.10;;;;;;5036025;28;20476;-54
2022/12/02 01:35:28;;;;;;;2.50;2.30;;;2.70;57.80;;;;;;5037198;28;20036;-55
2022/12/02 01:37:54;;;;;;;2.55;2.35;;;2.70;57.80;;;;;;5036282;28;20432;-54
2022/12/02 01:40:21;;;;;;;2.50;2.30;;;2.70;57.90;;;;;;5037751;28;20037;-55
2022/12/02 01:42:48;;;;;;;2.90;2.53;;;2.70;58.10;;;;;;5036788;28;20017;-54
2022/12/02 01:45:14;;;;;;;3.92;2.60;;;2.70;57.90;;;;;;5035921;28;20022;-54
2022/12/02 01:47:41;;;;;;;3.17;2.70;;;2.70;58.00;;;;;;5036977;28;20487;-55
2022/12/02 01:50:09;;;;;;;2.28;2.17;;;2.70;58.00;;;;;;5034119;28;20029;-55
2022/12/02 01:52:36;;;;;;;2.50;2.30;;;2.70;58.00;;;;;;5030727;28;20025;-55
2022/12/02 01:55:02;;;;;;;2.45;2.25;;;2.70;58.20;;;;;;5036394;28;20026;-55
2022/12/02 01:57:29;;;;;;;2.72;2.40;;;2.70;58.30;;;;;;5033326;28;20033;-54
2022/12/02 01:59:56;;;;;;;2.33;2.20;;;2.70;58.00;;;;;;5035353;28;20445;-55
2022/12/02 02:02:28;;;;;;;2.47;2.22;;;2.70;58.10;;;;;;5033601;28;20030;-55
2022/12/02 02:05:16;;;;;;;2.22;2.13;;;2.80;58.20;;;;;;5035872;28;20032;-56
2022/12/02 02:07:44;;;;;;;2.80;2.50;;;2.80;58.00;;;;;;5038754;28;20040;-55
2022/12/02 02:10:10;;;;;;;3.30;2.72;;;2.90;57.80;;;;;;5033947;28;20040;-54
2022/12/02 02:12:36;;;;;;;2.90;2.70;;;2.90;57.60;;;;;;5035484;28;20017;-55
2022/12/02 02:15:15;;;;;;;2.40;2.20;;;2.90;57.60;;;;;;5036661;28;20199;-55
2022/12/02 02:17:41;;;;;;;2.53;2.22;;;2.80;57.70;;;;;;5033885;28;20160;-53
2022/12/02 02:20:12;;;;;;;2.72;2.53;;;2.80;57.60;;;;;;5037951;28;20082;-53
2022/12/02 02:22:47;;;;;;;2.40;2.25;;;2.80;57.80;;;;;;5023173;28;20033;-55
2022/12/02 02:25:16;;;;;;;2.55;2.35;;;2.80;58.00;;;;;;5034175;28;20018;-55
2022/12/02 02:27:51;;;;;;;2.70;2.50;;;2.90;58.10;;;;;;5033802;28;20109;-55
2022/12/02 02:30:17;;;;;;;2.40;2.20;;;2.90;58.20;;;;;;5029780;28;20037;-56
2022/12/02 02:32:43;;;;;;;2.67;2.40;;;2.90;58.00;;;;;;5033966;28;20017;-55
2022/12/02 02:35:10;;;;;;;2.40;2.20;;;3.00;57.90;;;;;;5032470;28;20456;-54
2022/12/02 02:37:36;;;;;;;2.97;2.45;;;3.00;58.30;;;;;;5034921;28;20037;-55
2022/12/02 02:40:03;;;;;;;2.45;2.25;;;3.00;58.30;;;;;;5032486;28;20041;-54
2022/12/02 02:42:29;;;;;;;2.50;2.30;;;3.00;58.30;;;;;;5035189;28;20037;-55
2022/12/02 02:44:55;;;;;;;2.65;2.45;;;3.00;58.20;;;;;;5034942;28;20037;-55
2022/12/02 02:47:21;;;;;;;2.40;2.17;;;3.10;58.00;;;;;;5035411;28;20124;-56
2022/12/02 02:49:47;;;;;;;2.78;2.40;;;3.10;58.10;;;;;;5044997;28;20053;-55
2022/12/02 02:52:13;;;;;;;2.53;2.33;;;3.10;57.90;;;;;;5035229;28;20025;-55
2022/12/02 02:54:39;;;;;;;2.60;2.40;;;3.10;57.80;;;;;;5031857;28;20508;-54
2022/12/02 02:57:07;;;;;;;2.63;2.42;;;3.10;57.80;;;;;;5033874;28;20103;-55
2022/12/02 02:59:39;;;;;;;2.60;2.35;;;3.10;57.80;;;;;;5039149;28;20056;-54
2022/12/02 03:02:09;;;;;;;3.78;2.40;;;3.10;57.80;;;;;;5034891;28;20163;-56
2022/12/02 03:04:35;;;;;;;2.78;2.40;;;3.20;57.70;;;;;;5032813;28;20025;-55
2022/12/02 03:07:02;;;;;;;2.58;2.33;;;3.10;57.60;;;;;;5033673;28;20025;-54
2022/12/02 03:09:28;;;;;;;3.30;2.50;;;3.10;57.50;;;;;;5034900;28;20021;-56
2022/12/02 03:11:56;;;;;;;2.63;2.42;;;3.10;57.40;;;;;;5033373;28;20400;-55
2022/12/02 03:14:29;;;;;;;2.65;2.40;;;3.10;57.30;;;;;;5034620;28;20025;-55
2022/12/02 03:16:55;;;;;;;2.20;2.10;;;3.00;57.50;;;;;;5031940;28;20416;-53
2022/12/02 03:19:22;;;;;;;2.67;2.33;;;3.00;57.60;;;;;;5035053;28;20033;-55
2022/12/02 03:21:48;;;;;;;2.60;2.40;;;3.00;57.60;;;;;;5038909;28;20048;-55
2022/12/02 03:24:14;;;;;;;2.58;2.38;;;3.00;57.50;;;;;;5034897;28;20064;-55
2022/12/02 03:26:41;;;;;;;2.65;2.45;;;3.00;57.50;;;;;;5033067;28;20156;-55
2022/12/02 03:29:09;;;;;;;3.08;2.58;;;3.00;57.60;;;;;;5035344;28;20061;-54
2022/12/02 03:31:35;;;;;;;2.90;2.40;;;3.00;57.70;;;;;;5034102;28;20108;-55
2022/12/02 03:34:01;;;;;;;2.60;2.40;;;3.10;57.90;;;;;;5032811;28;20503;-55
2022/12/02 03:36:27;;;;;;;2.55;2.35;;;3.10;57.80;;;;;;5033560;28;20029;-55
2022/12/02 03:38:53;;;;;;;2.60;2.40;;;3.10;57.70;;;;;;5037835;28;20365;-54
2022/12/02 03:41:20;;;;;;;2.70;2.42;;;3.10;57.90;;;;;;5040311;28;20040;-56
2022/12/02 03:43:47;;;;;;;3.28;2.65;;;3.10;57.80;;;;;;5033983;28;20065;-54
2022/12/02 03:46:13;;;;;;;2.92;2.47;;;3.10;57.60;;;;;;5035401;28;20029;-55
2022/12/02 03:48:39;;;;;;;2.42;2.10;;;3.10;57.50;;;;;;5049348;28;20277;-55
2022/12/02 03:51:06;;;;;;;2.88;2.50;;;3.10;57.60;;;;;;5037335;28;20022;-55
2022/12/02 03:53:35;;;;;;;2.47;2.28;;;3.20;57.60;;;;;;5039677;28;20028;-55
2022/12/02 03:56:03;;;;;;;2.83;2.60;;;3.10;57.70;;;;;;5038818;28;20391;-54
2022/12/02 03:58:38;;;;;;;3.03;2.60;;;3.20;57.60;;;;;;5040927;28;20033;-54
2022/12/02 04:01:05;;;;;;;2.60;2.38;;;3.20;57.40;;;;;;5038120;28;20025;-56
2022/12/02 04:03:31;;;;;;;2.58;2.38;;;3.10;57.30;;;;;;5038873;28;20040;-54
2022/12/02 04:05:57;;;;;;;4.03;2.50;;;3.10;57.60;;;;;;5036938;28;20033;-55
2022/12/02 04:08:23;;;;;;;3.45;2.70;;;3.10;57.70;;;;;;5039395;28;20117;-55
2022/12/02 04:10:49;;;;;;;2.97;2.53;;;3.10;57.80;;;;;;5039553;28;20026;-54
2022/12/02 04:13:14;;;;;;;2.63;2.40;;;3.10;57.90;;;;;;5037491;28;20064;-55
2022/12/02 04:15:40;;;;;;;2.55;2.33;;;3.10;58.00;;;;;;5039367;28;20093;-55
2022/12/02 04:18:06;;;;;;;3.47;3.15;;;3.10;58.00;;;;;;5037066;28;20033;-54
2022/12/02 04:20:32;;;;;;;3.63;2.67;;;3.10;58.00;;;;;;5035645;28;20021;-55
2022/12/02 04:22:58;;;;;;;3.67;2.78;;;3.00;57.90;;;;;;5035153;28;20029;-54
2022/12/02 04:25:23;;;;;;;2.92;2.60;;;3.00;57.80;;;;;;5037385;28;20053;-56
2022/12/02 04:27:49;;;;;;;2.60;2.40;;;3.00;57.80;;;;;;5036821;28;20037;-54
2022/12/02 04:30:15;;;;;;;3.22;2.60;;;3.00;57.90;;;;;;5037207;28;20508;-55
2022/12/02 04:32:41;;;;;;;3.10;2.55;;;3.00;58.00;;;;;;5026361;28;20026;-55
2022/12/02 04:35:13;;;;;;;3.13;2.83;;;3.00;57.90;;;;;;5036549;28;20468;-55
2022/12/02 04:37:38;;;;;;;4.45;2.78;;;3.00;57.80;;;;;;5030857;28;20041;-55
2022/12/02 04:40:06;;;;;;;3.13;2.60;;;2.90;57.90;;;;;;5036608;28;20037;-53
2022/12/02 04:42:32;;;;;;;2.63;2.40;;;2.90;57.90;;;;;;5034880;28;20030;-55
2022/12/02 04:44:58;;;;;;;4.25;2.92;;;2.90;57.90;;;;;;5035318;28;20523;-58
2022/12/02 04:47:24;;;;;;;3.42;2.90;;;2.90;57.90;;;;;;5035781;28;20029;-56
2022/12/02 04:49:50;;;;;;;2.90;2.60;;;2.90;57.90;;;;;;5036892;28;20104;-55
2022/12/02 04:52:16;;;;;;;3.08;2.72;;;2.90;57.80;;;;;;5033619;28;20060;-56
2022/12/02 04:54:42;;;;;;;3.50;2.72;;;2.90;57.90;;;;;;5034621;28;20057;-55
2022/12/02 04:57:07;;;;;;;3.35;2.75;;;2.90;57.90;;;;;;5037039;28;20044;-56
2022/12/02 04:59:33;;;;;;;3.10;2.80;;;2.90;57.90;;;;;;5035953;28;20030;-56
2022/12/02 05:01:59;;;;;;;2.95;2.70;;;2.90;57.80;;;;;;5037223;28;20063;-56
2022/12/02 05:04:25;;;;;;;3.15;2.60;;;2.90;58.00;;;;;;5034694;28;20029;-54
2022/12/02 05:06:51;;;;;;;2.85;2.63;;;2.90;58.20;;;;;;5034457;28;20029;-55
2022/12/02 05:09:17;;;;;;;2.70;2.47;;;2.90;58.20;;;;;;5034809;28;20619;-54
2022/12/02 05:11:43;;;;;;;4.10;2.88;;;2.90;58.20;;;;;;5035575;28;20029;-56
2022/12/02 05:14:09;;;;;;;3.65;2.67;;;2.90;58.00;;;;;;5034285;28;20119;-56
2022/12/02 05:16:34;;;;;;;2.40;2.30;;;2.80;58.00;;;;;;5035567;28;20028;-56
2022/12/02 05:19:01;;;;;;;3.63;3.00;;;2.80;58.10;;;;;;5036694;28;20029;-55
2022/12/02 05:21:27;;;;;;;3.75;2.63;;;2.80;58.00;;;;;;5036729;28;20121;-55
2022/12/02 05:23:52;;;;;;;3.20;2.78;;;2.80;58.20;;;;;;5035990;28;20057;-54
2022/12/02 05:26:18;;;;;;;3.42;3.13;;;2.80;58.20;;;;;;5035226;28;20050;-56
2022/12/02 05:28:44;;;;;;;4.30;2.97;;;2.80;58.40;;;;;;5038655;28;20033;-55
2022/12/02 05:31:09;;;;;;;3.20;2.90;;;2.80;58.40;;;;;;5031266;28;20035;-55
2022/12/02 05:33:35;;;;;;;2.80;2.60;;;2.80;58.40;;;;;;5036555;28;20072;-56
2022/12/02 05:36:01;;;;;;;4.10;2.90;;;2.80;58.40;;;;;;5038264;28;20041;-55
2022/12/02 05:38:26;;;;;;;3.80;3.15;;;2.70;58.30;;;;;;5038006;28;20033;-56
2022/12/02 05:40:55;;;;;;;4.10;3.13;;;2.70;58.40;;;;;;5044589;28;20025;-55
2022/12/02 05:43:23;;;;;;;6.82;2.70;;;2.60;58.40;;;;;;5035315;28;20392;-55
2022/12/02 05:45:49;;;;;;;2.60;2.40;;;2.60;58.40;;;;;;5038153;28;20566;-55
2022/12/02 05:48:17;;;;;;;3.30;3.00;;;2.60;58.50;;;;;;5033093;28;20033;-56
2022/12/02 05:50:44;;;;;;;3.15;2.70;;;2.50;58.70;;;;;;5037048;28;20033;-55
2022/12/02 05:53:22;;;;;;;3.65;2.88;;;2.60;59.00;;;;;;5040190;28;20026;-56
2022/12/02 05:55:49;;;;;;;3.85;2.90;;;2.60;59.10;;;;;;5040419;28;20048;-56
2022/12/02 05:58:16;;;;;;;3.95;3.00;;;2.60;59.30;;;;;;5039311;28;20084;-55
2022/12/02 06:00:42;;;;;;;4.65;3.03;;;2.60;59.80;;;;;;5038995;28;20034;-55
2022/12/02 06:03:17;;;;;;;3.22;2.75;;;2.60;59.00;;;;;;5037400;28;20507;-56
2022/12/02 06:05:43;;;;;;;3.25;2.95;;;2.60;58.80;;;;;;5039171;28;20065;-56
2022/12/02 06:08:32;;;;;;;3.55;2.80;;;2.50;59.20;;;;;;5040686;28;20053;-55
2022/12/02 06:11:04;;;;;;;3.85;2.85;;;2.50;59.20;;;;;;5036702;28;20033;-55
2022/12/02 06:13:36;;;;;;;4.20;3.10;;;2.50;59.40;;;;;;5035939;28;20029;-55
2022/12/02 06:16:06;;;;;;;3.75;3.00;;;2.60;59.50;;;;;;5035769;28;20033;-55
2022/12/02 06:18:34;;;;;;;3.13;2.83;;;2.60;59.60;;;;;;5033785;28;20067;-56
2022/12/02 06:21:03;;;;;;;3.58;3.00;;;2.60;59.40;;;;;;5037169;28;20108;-55
2022/12/02 06:23:30;;;;;;;3.35;3.00;;;2.70;59.70;;;;;;5036099;28;20112;-55
2022/12/02 06:25:57;;;;;;;5.90;3.40;;;2.70;59.60;;;;;;5036706;28;20037;-56
2022/12/02 06:28:30;;;;;;;3.03;2.72;;;2.70;59.60;;;;;;5037141;28;20563;-56
2022/12/02 06:31:00;;;;;;;3.38;2.70;;;2.70;59.50;;;;;;5035002;28;20032;-56
2022/12/02 06:33:30;;;;;;;4.40;3.00;;;2.80;59.70;;;;;;5031983;28;20029;-56
2022/12/02 06:35:57;;;;;;;2.50;2.30;;;2.80;59.70;;;;;;5024979;28;20135;-56
2022/12/02 06:38:31;;;;;;;3.00;2.78;;;2.80;59.50;;;;;;5028004;28;20029;-56
2022/12/02 06:41:01;;;;;;;4.35;2.88;;;2.80;59.60;;;;;;5033177;28;20127;-54
2022/12/02 06:43:30;;;;;;;3.55;2.55;;;2.90;59.50;;;;;;5031127;28;20029;-56
2022/12/02 06:45:56;;;;;;;4.88;2.90;;;2.90;59.60;;;;;;5041741;28;20072;-56
2022/12/02 06:48:33;;;;;;;4.53;3.25;;;2.90;59.60;;;;;;5034960;28;20035;-55
2022/12/02 06:51:11;;;;;;;3.45;2.72;;;2.90;59.50;;;;;;5037137;28;20033;-55
2022/12/02 06:53:39;;;;;;;3.50;2.70;;;3.00;59.70;;;;;;5037049;28;20089;-55
2022/12/02 06:56:31;;;;;;;3.65;3.10;;;2.90;59.50;;;;;;5036278;28;20048;-56
2022/12/02 06:59:03;;;;;;;;;;;3.00;59.40;;;;;;5024331;28;20076;-56
2022/12/02 07:01:32;;;;;;;2.95;2.60;;;3.00;59.60;;;;;;5024322;28;19916;-54
2022/12/02 07:04:00;;;;;;;3.88;3.13;;;3.00;59.50;;;;;;5029665;28;20034;-56
2022/12/02 07:06:28;;;;;;;3.53;2.90;;;3.00;59.40;;;;;;5030597;28;20080;-56
2022/12/02 07:09:04;;;;;;;5.05;3.08;;;3.10;59.50;;;;;;5029209;28;20033;-56
2022/12/02 07:11:50;;;;;;;4.07;3.10;;;3.00;59.40;;;;;;5027233;28;20026;-55
2022/12/02 07:14:27;;;;;;;3.00;2.70;;;3.00;59.20;;;;;;5025280;28;20082;-55
2022/12/02 07:16:57;;;;;;;3.10;2.67;;;3.00;59.20;;;;;;5017463;28;22090;-57
2022/12/02 07:19:28;;;;;;;3.40;2.67;;;2.90;59.30;;;;;;5020779;28;20037;-55
2022/12/02 07:21:54;;;;;;;;;;;2.90;59.30;;;;;;5021996;28;20038;-56
2022/12/02 07:24:21;;;;;;;4.00;3.10;;;2.90;59.30;;;;;;5018566;28;19920;-54
2022/12/02 07:26:48;;;;;;;4.47;2.70;;;2.80;59.30;;;;;;5017864;28;20067;-56
2022/12/02 07:29:47;;;;;;;4.43;3.17;;;2.80;59.30;;;;;;5017538;28;20671;-58
2022/12/02 07:32:13;;;;;;;4.25;3.00;;;2.80;59.50;;;;;;5015389;28;20053;-56
2022/12/02 07:34:39;;;;;;;4.65;3.30;;;2.80;59.70;;;;;;5023620;28;20573;-57
2022/12/02 07:37:05;;;;;;;3.83;3.20;;;2.80;59.70;;;;;;5027021;28;20084;-57
2022/12/02 07:39:30;;;;;;;5.18;3.20;;;2.80;59.70;;;;;;5012915;28;20033;-58
2022/12/02 07:41:56;;;;;;;5.30;3.30;;;2.80;59.70;;;;;;5011266;28;20847;-57
2022/12/02 07:44:22;;;;;;;3.97;2.88;;;2.70;59.90;;;;;;5005188;28;20029;-57
2022/12/02 07:46:48;;;;;;;5.30;3.20;;;2.70;60.20;;;;;;5006153;28;20083;-55
2022/12/02 07:49:14;;;;;;;4.60;3.60;;;2.70;60.20;;;;;;5002148;28;20033;-57
2022/12/02 07:51:40;;;;;;;3.70;2.92;;;2.70;60.90;;;;;;5002415;28;20040;-58
2022/12/02 07:54:06;;;;;;;4.22;3.40;;;2.80;60.20;;;;;;5009713;28;20026;-57
2022/12/02 07:56:32;;;;;;;3.75;3.15;;;2.80;60.20;;;;;;5012183;28;20540;-58
2022/12/02 07:58:59;;;;;;;4.45;3.08;;;2.90;60.50;;;;;;5013967;28;20037;-58
2022/12/02 08:01:25;;;;;;;4.65;3.42;;;3.00;60.50;;;;;;5003248;28;20048;-57
2022/12/02 08:03:51;;;;;;;3.15;2.85;;;3.00;60.10;;;;;;4993945;28;20059;-57
2022/12/02 08:06:16;;;;;;;5.28;3.33;;;3.00;59.90;;;;;;4998004;28;20929;-56
2022/12/02 08:08:42;;;;;;;4.32;3.33;;;3.00;60.10;;;;;;4993975;28;20041;-54
2022/12/02 08:11:08;;;;;;;5.15;3.42;;;3.00;60.00;;;;;;4990155;28;20049;-57
2022/12/02 08:13:34;;;;;;;4.43;3.03;;;2.90;59.80;;;;;;4987615;28;20034;-55
2022/12/02 08:15:59;;;;;;;4.30;3.30;;;2.90;60.00;;;;;;4988752;28;21016;-56
2022/12/02 08:18:25;;;;;;;4.95;3.17;;;2.90;60.20;;;;;;4992501;28;20129;-54
2022/12/02 08:20:51;;;;;;;3.47;3.08;;;3.00;60.40;;;;;;4978540;28;21450;-56
2022/12/02 08:23:17;;;;;;;6.18;4.55;;;3.00;60.50;;;;;;4990589;28;20789;-55
2022/12/02 08:25:43;;;;;;;4.65;3.38;;;3.10;60.40;;;;;;5005587;28;20043;-55
2022/12/02 08:28:09;;;;;;;4.15;3.47;;;3.10;59.90;;;;;;4999593;28;20041;-55
2022/12/02 08:30:35;;;;;;;4.95;3.45;;;3.20;59.80;;;;;;4959619;28;20052;-54
2022/12/02 08:33:01;;;;;;;4.47;3.30;;;3.20;59.80;;;;;;4975752;28;20060;-55
2022/12/02 08:35:27;;;;;;;3.33;3.03;;;3.20;59.70;;;;;;4988145;28;20840;-57
2022/12/02 08:37:53;;;;;;;3.67;3.08;;;3.20;59.70;;;;;;4992355;28;20037;-56
2022/12/02 08:40:19;;;;;;;4.85;3.15;;;3.20;59.80;;;;;;4992706;28;20106;-55
2022/12/02 08:42:45;;;;;;;4.00;3.20;;;3.30;59.70;;;;;;4989558;28;20026;-54
2022/12/02 08:45:11;;;;;;;3.20;2.70;;;3.30;59.80;;;;;;4989419;28;20825;-55
2022/12/02 08:47:37;;;;;;;4.30;3.30;;;3.40;59.50;;;;;;4992847;28;20057;-55
2022/12/02 08:50:04;;;;;;;4.30;3.40;;;3.40;59.40;;;;;;4994954;28;21350;-55
2022/12/02 08:52:30;;;;;;;4.78;3.47;;;3.50;59.30;;;;;;4992603;28;20029;-57
2022/12/02 08:54:59;;;;;;;5.82;3.97;;;3.50;59.20;;;;;;4992289;28;20489;-57
2022/12/02 08:57:25;;;;;;;5.53;4.00;;;3.50;59.10;;;;;;4987932;28;20120;-56
2022/12/02 08:59:51;;;;;;;5.80;3.60;;;3.50;59.00;;;;;;5005329;28;20044;-57
2022/12/02 09:02:17;;;;;;;4.05;3.63;;;3.50;58.70;;;;;;4996108;28;20034;-55
2022/12/02 09:04:46;;;;;;;4.63;3.20;;;3.40;58.90;;;;;;5009105;28;20029;-57
2022/12/02 09:07:12;;;;;;;3.50;3.10;;;3.40;59.00;;;;;;5018151;28;20026;-55
2022/12/02 09:09:37;;;;;;;4.10;3.05;;;3.50;58.90;;;;;;4999693;28;20036;-55
2022/12/02 09:12:03;;;;;;;4.90;3.47;;;3.40;58.50;;;;;;5012221;28;20754;-57
2022/12/02 09:14:29;;;;;;;4.45;3.40;;;3.40;58.60;;;;;;5003577;28;20146;-57
2022/12/02 09:16:55;;;;;;;3.72;3.15;;;3.40;58.80;;;;;;5002445;28;20152;-58
2022/12/02 09:19:21;;;;;;;4.50;3.38;;;3.40;58.90;;;;;;5001086;28;20649;-59
2022/12/02 09:21:47;;;;;;;3.65;3.30;;;3.50;58.90;;;;;;4999863;28;20029;-60
2022/12/02 09:24:15;;;;;;;4.25;3.00;;;3.50;58.60;;;;;;5000643;28;20080;-59
2022/12/02 09:26:41;;;;;;;4.53;3.85;;;3.50;58.40;;;;;;5007788;28;20049;-59
2022/12/02 09:29:08;;;;;;;6.05;3.78;;;3.60;58.30;;;;;;5002337;28;20029;-60
2022/12/02 09:31:33;;;;;;;4.90;3.80;;;3.60;58.10;;;;;;5005040;28;20116;-59
2022/12/02 09:33:59;;;;;;;4.30;3.60;;;3.60;58.20;;;;;;5009429;28;20708;-58
2022/12/02 09:36:25;;;;;;;3.45;3.15;;;3.60;58.30;;;;;;5026495;28;20034;-57
2022/12/02 09:38:51;;;;;;;4.85;3.22;;;3.70;58.30;;;;;;5001249;28;20052;-59
2022/12/02 09:41:17;;;;;;;5.75;3.60;;;3.70;58.20;;;;;;4993561;28;20037;-58
2022/12/02 09:43:47;;;;;;;4.43;3.30;;;3.80;57.80;;;;;;4997640;28;20441;-59
2022/12/02 09:46:16;;;;;;;6.88;4.07;;;3.70;57.10;;;;;;4989498;28;20021;-58
2022/12/02 09:48:41;;;;;;;4.55;3.67;;;3.60;57.20;;;;;;4985620;28;20065;-58
2022/12/02 09:51:09;;;;;;;4.63;3.53;;;3.50;57.60;;;;;;4992913;28;20025;-53
2022/12/02 09:53:38;;;;;;;7.13;4.32;;;3.50;57.50;;;;;;5010877;28;20030;-55
2022/12/02 09:56:09;;;;;;;7.70;4.78;;;3.40;57.70;;;;;;4995352;28;20055;-57
2022/12/02 09:58:37;;;;;;;5.30;3.88;;;3.30;58.00;;;;;;5004754;28;20025;-57
2022/12/02 10:01:09;;;;;;;7.13;4.03;;;3.30;57.90;;;;;;4986434;28;20030;-58
2022/12/02 10:03:35;;;;;;;4.03;3.22;;;3.20;58.00;;;;;;5002961;28;20262;-56
2022/12/02 10:06:06;;;;;;;3.80;3.20;;;3.10;58.00;;;;;;5000475;28;20052;-56
2022/12/02 10:08:32;;;;;;;5.03;3.55;;;3.10;58.10;;;;;;5002479;28;20026;-56
2022/12/02 10:11:01;;;;;;;5.07;3.63;;;3.00;57.80;;;;;;4992951;28;20037;-57
2022/12/02 10:13:28;;;;;;;5.00;3.38;;;3.00;58.00;;;;;;5011038;28;20100;-56
2022/12/02 10:15:53;;;;;;;4.82;3.58;;;3.00;58.30;;;;;;5016700;28;20022;-58
2022/12/02 10:18:27;;;;;;;5.45;3.72;;;3.00;58.60;;;;;;5003184;28;20029;-56
2022/12/02 10:20:52;;;;;;;4.80;3.33;;;3.00;58.40;;;;;;5000873;28;20132;-57
2022/12/02 10:23:22;;;;;;;6.15;4.05;;;3.10;58.30;;;;;;4992674;28;20371;-58
2022/12/02 10:25:57;;;;;;;6.40;4.05;;;3.10;58.30;;;;;;5006134;28;20692;-56
2022/12/02 10:28:32;;;;;;;3.67;3.20;;;3.10;57.80;;;;;;5001232;28;20026;-52
2022/12/02 10:31:10;;;;;;;3.42;3.10;;;3.10;57.80;;;;;;4988142;28;20032;-57
2022/12/02 10:33:56;;;;;;;4.97;3.63;;;3.10;58.00;;;;;;4991190;28;20140;-56
2022/12/02 10:36:35;;;;;;;3.63;3.28;;;3.10;58.10;;;;;;4992223;28;20104;-57
2022/12/02 10:39:32;;;;;;;4.50;3.65;;;3.10;58.10;;;;;;4992731;28;20036;-54
2022/12/02 10:42:03;;;;;;;6.10;3.70;;;3.10;57.90;;;;;;4985927;28;20041;-56
2022/12/02 10:44:31;;;;;;;5.13;3.25;;;3.20;57.80;;;;;;5005956;28;20033;-57
2022/12/02 10:47:14;;;;;;;3.90;3.50;;;3.20;57.60;;;;;;5014907;28;20021;-57
2022/12/02 10:49:52;;;;;;;3.50;3.05;;;3.20;57.70;;;;;;5013761;28;20112;-56
2022/12/02 10:52:25;;;;;;;4.40;3.55;;;3.20;57.60;;;;;;5011918;28;20057;-58
2022/12/02 10:54:52;;;;;;;5.22;3.85;;;3.20;57.60;;;;;;4995550;28;20029;-57
2022/12/02 10:57:26;;;;;;;5.05;3.35;;;3.20;57.50;;;;;;4986102;28;21457;-58
2022/12/02 10:59:54;;;;;;;5.38;3.80;;;3.20;57.40;;;;;;5005485;28;20061;-58
2022/12/02 11:02:42;;;;;;;4.50;3.70;;;3.20;57.50;;;;;;4997595;28;20043;-56
2022/12/02 11:05:34;;;;;;;4.65;3.40;;;3.20;57.80;;;;;;4994033;28;20025;-57
2022/12/02 11:08:03;;;;;;;5.75;3.60;;;3.30;57.80;;;;;;4995018;28;20164;-58
2022/12/02 11:10:35;;;;;;;4.75;3.65;;;3.30;57.60;;;;;;5004966;28;20048;-58
2022/12/02 11:13:03;;;;;;;;;;;3.40;57.60;;;;;;5006298;28;20767;-57
2022/12/02 11:15:41;;;;;;;9.07;3.97;;;3.40;57.10;;;;;;5010691;28;19917;-56
2022/12/02 11:18:09;;;;;;;3.25;2.78;;;3.30;57.50;;;;;;4993867;28;20034;-58
2022/12/02 11:20:36;;;;;;;4.32;3.50;;;3.40;57.50;;;;;;4998734;28;20049;-57
2022/12/02 11:23:25;;;;;;;3.33;3.03;;;3.40;57.50;;;;;;4998278;28;20040;-56
2022/12/02 11:26:11;;;;;;;3.78;2.95;;;3.50;57.50;;;;;;5004755;28;20042;-56
2022/12/02 11:29:13;;;;;;;4.85;3.63;;;3.50;57.30;;;;;;5006553;28;21255;-57
2022/12/02 11:31:39;;;;;;;4.15;3.28;;;3.50;57.30;;;;;;5006510;28;20022;-56
2022/12/02 11:34:24;;;;;;;5.90;3.25;;;3.40;57.10;;;;;;5007802;28;20065;-58
2022/12/02 11:37:25;;;;;;;5.65;3.10;;;3.40;57.10;;;;;;5005014;28;20026;-56
2022/12/02 11:39:52;;;;;;;4.18;3.30;;;3.40;57.40;;;;;;5002806;28;20053;-58
2022/12/02 11:42:21;;;;;;;3.83;3.20;;;3.40;57.50;;;;;;5006029;28;20098;-57
2022/12/02 11:44:47;;;;;;;4.32;3.15;;;3.40;57.70;;;;;;5012928;28;20116;-57
2022/12/02 11:47:32;;;;;;;3.83;3.00;;;3.40;57.80;;;;;;4999533;28;20771;-58
2022/12/02 11:50:23;;;;;;;3.20;2.90;;;3.50;57.90;;;;;;5004025;28;20031;-59
2022/12/02 11:52:52;;;;;;;4.22;2.92;;;3.60;57.70;;;;;;5000359;28;20435;-57
2022/12/02 11:55:21;;;;;;;4.07;3.17;;;3.70;57.70;;;;;;4998610;28;20141;-60
2022/12/02 11:57:53;;;;;;;3.67;2.90;;;3.80;57.70;;;;;;5009339;28;20058;-58
2022/12/02 12:00:33;;;;;;;3.40;2.95;;;3.80;57.30;;;;;;4997341;28;20539;-59
2022/12/02 12:03:15;;;;;;;4.65;3.22;;;3.90;57.20;;;;;;4997021;28;20038;-58
2022/12/02 12:06:03;;;;;;;4.13;3.30;;;3.90;57.30;;;;;;5004991;28;20036;-57
2022/12/02 12:08:28;;;;;;;3.08;2.78;;;4.00;57.20;;;;;;5016817;28;20660;-59
2022/12/02 12:11:14;;;;;;;4.50;3.25;;;4.00;57.30;;;;;;5007999;28;20037;-58
2022/12/02 12:13:55;;;;;;;3.63;2.80;;;4.00;57.00;;;;;;5002305;28;20033;-60
2022/12/02 12:16:23;;;;;;;3.35;2.80;;;4.00;56.90;;;;;;5008310;28;20847;-59
2022/12/02 12:18:49;;;;;;;4.68;3.15;;;4.00;57.10;;;;;;5017331;28;20040;-58
2022/12/02 12:21:31;;;;;;;3.10;2.88;;;4.00;57.10;;;;;;5015070;28;20071;-60
2022/12/02 12:24:24;;;;;;;3.58;2.97;;;4.10;57.30;;;;;;5011783;28;20156;-59
2022/12/02 12:26:52;;;;;;;3.33;2.70;;;4.10;57.20;;;;;;5001658;28;20049;-58
2022/12/02 12:29:24;;;;;;;4.28;2.97;;;4.20;57.30;;;;;;4998560;28;20040;-57
2022/12/02 12:31:50;;;;;;;4.32;2.78;;;4.20;57.20;;;;;;4989990;28;20392;-58
2022/12/02 12:34:16;;;;;;;3.88;2.88;;;4.20;57.00;;;;;;5009779;28;20030;-61
2022/12/02 12:36:43;;;;;;;5.65;3.30;;;4.20;57.10;;;;;;5011843;28;20083;-57
2022/12/02 12:39:10;;;;;;;3.80;3.10;;;4.20;56.90;;;;;;4992571;28;20040;-58
2022/12/02 12:41:36;;;;;;;5.35;3.10;;;4.20;57.00;;;;;;5001340;28;20041;-57
2022/12/02 12:44:02;;;;;;;2.80;2.60;;;4.20;57.10;;;;;;5006801;28;20079;-59
2022/12/02 12:46:28;;;;;;;4.90;3.00;;;4.20;57.20;;;;;;4999337;28;20120;-59
2022/12/02 12:48:54;;;;;;;4.32;3.05;;;4.30;57.10;;;;;;4987458;28;20532;-61
2022/12/02 12:51:20;;;;;;;3.70;3.00;;;4.30;57.00;;;;;;4993510;28;20662;-59
2022/12/02 12:53:45;;;;;;;3.72;3.15;;;4.20;56.90;;;;;;5004067;28;20032;-60
2022/12/02 12:56:11;;;;;;;2.85;2.55;;;4.30;57.20;;;;;;4998378;28;20105;-59
2022/12/02 12:58:36;;;;;;;3.38;2.85;;;4.30;57.30;;;;;;4993056;28;20116;-60
2022/12/02 13:01:02;;;;;;;3.65;3.00;;;4.30;57.20;;;;;;4994349;28;21538;-59
2022/12/02 13:06:38;;;;;;;3.22;2.75;;;4.40;56.70;;;;;;4067252;27;1521922;-57
2022/12/02 13:09:05;;;;;;;4.53;3.05;;;4.40;57.20;;;;;;5069043;28;20027;-56
2022/12/02 13:14:57;;;;;;;;;;;4.40;57.40;;;;;;5065076;28;20047;-56
2022/12/02 13:17:22;;;;;;;5.00;2.85;;;4.40;57.80;;;;;;5073514;28;19912;-56